Time;durP1;ratioP1;P1;durP2;ratioP2;P2;SDS_P1;SDS_P2;PMS_P1;PMS_P2;Temp;Humidity;BMP_temperature;BMP_pressure;BME280_temperature;BME280_humidity;BME280_pressure;Samples;Min_cycle;Max_cycle;Signal;HPM_P1;HPM_P2
2023/10/06 00:00:18;;;;;;;5.88;3.10;;;13.50;99.90;;;;;;5045511;28;20561;-74
2023/10/06 00:02:44;;;;;;;4.80;2.22;;;13.50;99.90;;;;;;5031134;28;20044;-74
2023/10/06 00:05:12;;;;;;;7.15;2.40;;;13.40;99.90;;;;;;5026954;28;20060;-74
2023/10/06 00:07:40;;;;;;;5.03;2.53;;;13.40;99.90;;;;;;5027335;28;20048;-74
2023/10/06 00:10:14;;;;;;;5.68;2.80;;;13.30;99.90;;;;;;5028189;28;20040;-74
2023/10/06 00:12:39;;;;;;;13.05;3.08;;;13.30;99.90;;;;;;5048416;28;20046;-74
2023/10/06 00:15:09;;;;;;;9.38;2.70;;;13.40;99.90;;;;;;5040299;28;20110;-74
2023/10/06 00:17:35;;;;;;;7.45;2.50;;;13.40;99.90;;;;;;5040116;28;20033;-74
2023/10/06 00:20:01;;;;;;;9.40;2.75;;;13.40;99.90;;;;;;5034698;28;20458;-74
2023/10/06 00:22:26;;;;;;;8.43;2.75;;;13.40;99.90;;;;;;5039060;28;20041;-74
2023/10/06 00:24:58;;;;;;;4.82;2.53;;;13.50;99.90;;;;;;5042391;28;20040;-74
2023/10/06 00:27:29;;;;;;;7.70;3.15;;;13.50;99.90;;;;;;5027900;28;20048;-74
2023/10/06 00:29:56;;;;;;;7.95;2.85;;;13.50;99.90;;;;;;5032980;28;20090;-74
2023/10/06 00:32:22;;;;;;;8.27;2.63;;;13.50;99.90;;;;;;5054308;28;20097;-74
2023/10/06 00:35:08;;;;;;;7.57;2.42;;;13.60;99.90;;;;;;5062639;28;20048;-74
2023/10/06 00:37:40;;;;;;;9.70;3.20;;;13.60;99.90;;;;;;5037927;28;20052;-74
2023/10/06 00:40:19;;;;;;;6.88;3.00;;;13.60;99.90;;;;;;5026554;28;20037;-74
2023/10/06 00:42:50;;;;;;;7.45;2.88;;;13.60;99.90;;;;;;5057590;28;20064;-74
2023/10/06 00:45:16;;;;;;;8.15;3.00;;;13.50;99.90;;;;;;5036705;28;20121;-74
2023/10/06 00:47:42;;;;;;;6.15;2.90;;;13.50;99.90;;;;;;5039725;28;20754;-74
2023/10/06 00:50:12;;;;;;;8.02;2.72;;;13.40;99.90;;;;;;5029680;28;20040;-74
2023/10/06 00:52:39;;;;;;;13.77;3.40;;;13.40;99.90;;;;;;5026697;28;20344;-74
2023/10/06 00:55:10;;;;;;;10.65;4.10;;;13.40;99.90;;;;;;5043834;28;20115;-74
2023/10/06 00:57:37;;;;;;;8.73;3.42;;;13.30;99.90;;;;;;5045543;28;20083;-74
2023/10/06 01:00:16;;;;;;;8.48;3.40;;;13.30;99.90;;;;;;5040178;28;20147;-74
2023/10/06 01:02:43;;;;;;;13.88;3.60;;;13.20;99.90;;;;;;5044505;28;20048;-74
2023/10/06 01:05:09;;;;;;;12.60;3.90;;;13.20;99.90;;;;;;5042262;28;20098;-74
2023/10/06 01:07:36;;;;;;;9.32;3.35;;;13.30;99.90;;;;;;5046444;28;20483;-74
2023/10/06 01:10:14;;;;;;;8.48;3.72;;;13.30;99.90;;;;;;5049033;28;20044;-74
2023/10/06 01:12:40;;;;;;;10.55;3.97;;;13.40;99.90;;;;;;5033103;28;20036;-74
2023/10/06 01:15:16;;;;;;;10.80;3.35;;;13.50;99.90;;;;;;5050358;28;20110;-74
2023/10/06 01:17:43;;;;;;;9.65;4.10;;;13.50;99.90;;;;;;5044339;28;20047;-73
2023/10/06 01:20:10;;;;;;;8.98;4.05;;;13.50;99.90;;;;;;5044681;28;20041;-74
2023/10/06 01:22:42;;;;;;;7.43;3.40;;;13.50;99.90;;;;;;5025955;28;20057;-74
2023/10/06 01:25:20;;;;;;;10.38;3.95;;;13.60;99.90;;;;;;5028049;28;20045;-74
2023/10/06 01:27:50;;;;;;;7.28;3.92;;;13.50;99.90;;;;;;5034595;28;20465;-74
2023/10/06 01:32:45;;;;;;;10.18;4.28;;;13.60;99.90;;;;;;5064546;28;20040;-74
2023/10/06 01:35:12;;;;;;;9.45;4.15;;;13.60;99.90;;;;;;5045537;28;20124;-74
2023/10/06 01:37:43;;;;;;;13.93;4.43;;;13.60;99.90;;;;;;5031410;28;20047;-74
2023/10/06 01:42:50;;;;;;;11.18;4.32;;;13.70;99.90;;;;;;5037422;28;20043;-74
2023/10/06 01:45:19;;;;;;;11.13;4.78;;;13.70;99.90;;;;;;5049957;28;20115;-74
2023/10/06 01:47:45;;;;;;;7.35;4.07;;;13.70;99.90;;;;;;5053252;28;20044;-74
2023/10/06 01:50:11;;;;;;;11.32;4.93;;;13.80;99.90;;;;;;5049605;28;20407;-74
2023/10/06 01:52:40;;;;;;;7.93;3.97;;;13.80;99.90;;;;;;5028683;28;20075;-74
2023/10/06 01:55:09;;;;;;;12.68;5.00;;;13.80;99.90;;;;;;5032885;28;20045;-74
2023/10/06 01:57:35;;;;;;;13.85;4.57;;;13.80;99.90;;;;;;5030161;28;20072;-74
2023/10/06 02:00:00;;;;;;;13.05;5.30;;;13.80;99.90;;;;;;5061848;28;20088;-74
2023/10/06 02:02:28;;;;;;;9.18;4.70;;;13.80;99.90;;;;;;5038997;28;20502;-74
2023/10/06 02:04:57;;;;;;;16.65;4.47;;;13.80;99.90;;;;;;5047726;28;20112;-74
2023/10/06 02:07:22;;;;;;;9.70;4.35;;;13.80;99.90;;;;;;5056214;28;20112;-74
2023/10/06 02:09:49;;;;;;;10.98;4.38;;;13.80;99.90;;;;;;5035219;28;20128;-74
2023/10/06 02:12:15;;;;;;;13.45;4.70;;;13.90;99.90;;;;;;5028710;28;20759;-74
2023/10/06 02:14:41;;;;;;;8.77;4.28;;;13.90;99.90;;;;;;5045178;28;20033;-74
2023/10/06 02:17:08;;;;;;;9.80;4.40;;;13.90;99.90;;;;;;5029854;28;20063;-74
2023/10/06 02:19:36;;;;;;;11.07;4.15;;;13.90;99.90;;;;;;5040877;28;20083;-74
2023/10/06 02:22:06;;;;;;;8.98;4.43;;;13.90;99.90;;;;;;5048075;28;20041;-74
2023/10/06 02:24:32;;;;;;;8.73;3.72;;;13.90;99.90;;;;;;5045715;28;20044;-74
2023/10/06 02:27:00;;;;;;;7.68;4.72;;;14.00;99.90;;;;;;5039227;28;20065;-74
2023/10/06 02:29:26;;;;;;;11.77;4.78;;;14.00;99.90;;;;;;5020013;28;20037;-74
2023/10/06 02:32:06;;;;;;;8.63;4.07;;;14.00;99.90;;;;;;5044765;28;20036;-74
2023/10/06 02:34:35;;;;;;;10.85;4.20;;;14.00;99.90;;;;;;5056622;28;20079;-74
2023/10/06 02:37:08;;;;;;;10.35;4.43;;;14.00;99.90;;;;;;5028439;28;20052;-74
2023/10/06 02:39:34;;;;;;;13.68;4.28;;;13.90;99.90;;;;;;5042969;28;20045;-74
2023/10/06 02:42:07;;;;;;;10.25;4.22;;;13.90;99.90;;;;;;5026939;28;20038;-74
2023/10/06 02:44:38;;;;;;;9.48;4.50;;;14.00;99.90;;;;;;5049199;28;20045;-74
2023/10/06 02:47:14;;;;;;;11.85;4.32;;;13.90;99.90;;;;;;5036632;28;20037;-74
2023/10/06 02:49:48;;;;;;;;;;;13.90;99.90;;;;;;5047611;28;20041;-74
2023/10/06 02:52:22;;;;;;;11.65;4.95;;;13.90;99.90;;;;;;5037678;28;20440;-74
2023/10/06 02:57:37;;;;;;;12.38;4.18;;;13.80;99.90;;;;;;5043267;28;20148;-74
2023/10/06 03:02:55;;;;;;;16.40;4.47;;;13.80;99.90;;;;;;5059849;28;20625;-74
2023/10/06 03:05:25;;;;;;;10.63;4.50;;;13.80;99.90;;;;;;5020213;28;20033;-74
2023/10/06 03:07:51;;;;;;;11.60;5.18;;;13.70;99.90;;;;;;5039594;28;20051;-74
2023/10/06 03:10:18;;;;;;;13.70;5.60;;;13.60;99.90;;;;;;5032542;28;20049;-74
2023/10/06 03:12:43;;;;;;;9.88;4.60;;;13.50;99.90;;;;;;5044159;28;20049;-74
2023/10/06 03:15:29;;;;;;;12.15;5.25;;;13.50;99.90;;;;;;5039417;28;20115;-74
2023/10/06 03:17:55;;;;;;;10.93;4.80;;;13.40;99.90;;;;;;5013218;28;20129;-74
2023/10/06 03:20:26;;;;;;;11.70;4.65;;;13.30;99.90;;;;;;5047589;28;20037;-74
2023/10/06 03:22:52;;;;;;;13.93;5.00;;;13.30;99.90;;;;;;5042623;28;20037;-74
2023/10/06 03:25:20;;;;;;;9.30;4.72;;;13.20;99.90;;;;;;5042382;28;20514;-74
2023/10/06 03:27:45;;;;;;;8.88;4.97;;;13.20;99.90;;;;;;5030051;28;20462;-74
2023/10/06 03:30:18;;;;;;;13.95;5.10;;;13.10;99.90;;;;;;5042869;28;20044;-74
2023/10/06 03:32:48;;;;;;;16.58;5.45;;;13.20;99.90;;;;;;5026443;28;20048;-74
2023/10/06 03:35:23;;;;;;;11.15;5.05;;;13.20;99.90;;;;;;5051875;28;20045;-74
2023/10/06 03:37:53;;;;;;;13.05;5.35;;;13.20;99.90;;;;;;5037592;28;20502;-74
2023/10/06 03:40:28;;;;;;;10.95;5.25;;;13.30;99.90;;;;;;5042366;28;20511;-74
2023/10/06 03:42:55;;;;;;;11.98;5.28;;;13.30;99.90;;;;;;5026227;28;20039;-74
2023/10/06 03:45:31;;;;;;;12.82;5.65;;;13.30;99.90;;;;;;5042065;28;20042;-74
2023/10/06 03:48:12;;;;;;;10.60;5.18;;;13.30;99.90;;;;;;5044391;28;20044;-74
2023/10/06 03:50:40;;;;;;;13.13;5.50;;;13.40;99.90;;;;;;5030660;28;20056;-74
2023/10/06 03:53:09;;;;;;;11.90;5.55;;;13.40;99.90;;;;;;5013673;28;20049;-74
2023/10/06 03:55:39;;;;;;;13.15;5.10;;;13.50;99.90;;;;;;5035350;28;20047;-74
2023/10/06 03:58:10;;;;;;;13.57;5.18;;;13.50;99.90;;;;;;5046999;28;20033;-74
2023/10/06 04:00:40;;;;;;;9.95;5.50;;;13.50;99.90;;;;;;5035271;28;20041;-74
2023/10/06 04:03:11;;;;;;;16.38;6.03;;;13.50;99.90;;;;;;5025448;28;20032;-74
2023/10/06 04:05:44;;;;;;;9.40;4.95;;;13.50;99.90;;;;;;5041695;28;20879;-74
2023/10/06 04:08:16;;;;;;;10.77;5.50;;;13.50;99.90;;;;;;5037016;28;20040;-74
2023/10/06 04:10:48;;;;;;;11.85;5.28;;;13.60;99.90;;;;;;5033007;28;20044;-74
2023/10/06 04:13:17;;;;;;;12.20;5.20;;;13.60;99.90;;;;;;5039021;28;20076;-74
2023/10/06 04:15:46;;;;;;;14.93;5.43;;;13.60;99.90;;;;;;5044817;28;20692;-74
2023/10/06 04:18:16;;;;;;;10.15;4.43;;;13.60;99.90;;;;;;5058806;28;20045;-74
2023/10/06 04:20:42;;;;;;;10.50;4.97;;;13.60;99.90;;;;;;5032765;28;20048;-74
2023/10/06 04:23:12;;;;;;;9.88;5.20;;;13.50;99.90;;;;;;5033340;28;20041;-74
2023/10/06 04:25:39;;;;;;;12.70;5.45;;;13.50;99.90;;;;;;5034023;28;20045;-74
2023/10/06 04:28:08;;;;;;;12.05;5.07;;;13.50;99.90;;;;;;5056507;28;20040;-74
2023/10/06 04:30:37;;;;;;;9.65;4.85;;;13.40;99.90;;;;;;5017103;28;20036;-73
2023/10/06 04:33:04;;;;;;;13.48;5.15;;;13.40;99.90;;;;;;5042403;28;20044;-74
2023/10/06 04:35:33;;;;;;;13.02;5.07;;;13.40;99.90;;;;;;5035123;28;20104;-74
2023/10/06 04:38:03;;;;;;;12.38;4.50;;;13.40;99.90;;;;;;5040663;28;20504;-74
2023/10/06 04:40:29;;;;;;;8.25;4.10;;;13.50;99.90;;;;;;5018863;28;20145;-74
2023/10/06 04:42:58;;;;;;;12.43;4.70;;;13.40;99.90;;;;;;5050659;28;20033;-74
2023/10/06 04:45:31;;;;;;;9.63;4.82;;;13.50;99.90;;;;;;5044783;28;20056;-74
2023/10/06 04:48:03;;;;;;;13.65;4.60;;;13.40;99.90;;;;;;5033346;28;20041;-74
2023/10/06 04:50:30;;;;;;;9.30;4.30;;;13.60;99.90;;;;;;5050254;28;20049;-74
2023/10/06 04:52:56;;;;;;;8.85;4.25;;;13.50;99.90;;;;;;5025749;28;20057;-72
2023/10/06 04:55:22;;;;;;;9.50;4.13;;;13.50;99.90;;;;;;5038405;28;20045;-74
2023/10/06 04:57:48;;;;;;;7.95;3.92;;;13.50;99.90;;;;;;5031610;28;20049;-74
2023/10/06 05:00:21;;;;;;;9.63;4.35;;;13.50;99.90;;;;;;5044999;28;20460;-74
2023/10/06 05:02:47;;;;;;;13.52;4.45;;;13.50;99.90;;;;;;5032510;28;20403;-74
2023/10/06 05:05:23;;;;;;;9.05;4.00;;;13.60;99.90;;;;;;5032854;28;20048;-74
2023/10/06 05:07:50;;;;;;;9.02;3.88;;;13.60;99.90;;;;;;5049391;28;20040;-74
2023/10/06 05:10:25;;;;;;;11.05;3.95;;;13.60;99.90;;;;;;5027017;28;20052;-74
2023/10/06 05:12:54;;;;;;;10.20;4.25;;;13.60;99.90;;;;;;5047026;28;20077;-74
2023/10/06 05:15:26;;;;;;;9.80;3.60;;;13.60;99.90;;;;;;5036687;28;20045;-74
2023/10/06 05:17:55;;;;;;;9.95;3.95;;;13.70;99.90;;;;;;5044547;28;20069;-74
2023/10/06 05:20:23;;;;;;;9.85;4.20;;;13.70;99.90;;;;;;5038348;28;20041;-74
2023/10/06 05:22:50;;;;;;;9.52;3.85;;;13.60;99.90;;;;;;5060147;28;20045;-74
2023/10/06 05:25:19;;;;;;;13.70;4.22;;;13.60;99.90;;;;;;5038533;28;20532;-74
2023/10/06 05:27:46;;;;;;;10.40;3.83;;;13.70;99.90;;;;;;5030755;28;20048;-74
2023/10/06 05:30:17;;;;;;;7.13;3.85;;;13.70;99.90;;;;;;5034664;28;20056;-74
2023/10/06 05:32:43;;;;;;;10.35;4.47;;;13.70;99.90;;;;;;5049666;28;20443;-74
2023/10/06 05:35:10;;;;;;;8.30;3.53;;;13.80;99.90;;;;;;5022582;28;20041;-74
2023/10/06 05:37:36;;;;;;;11.45;3.85;;;13.70;99.90;;;;;;5035816;28;20402;-74
2023/10/06 05:40:02;;;;;;;13.65;4.95;;;13.80;99.90;;;;;;5023519;28;20091;-74
2023/10/06 05:42:28;;;;;;;8.18;3.70;;;13.80;99.90;;;;;;5044156;28;20076;-75
2023/10/06 05:44:55;;;;;;;8.70;4.00;;;13.90;99.90;;;;;;5029703;28;20495;-75
2023/10/06 05:47:21;;;;;;;7.82;4.38;;;13.90;99.90;;;;;;5047989;28;20037;-75
2023/10/06 05:49:49;;;;;;;10.40;4.25;;;13.80;99.90;;;;;;5050719;28;20113;-74
2023/10/06 05:52:16;;;;;;;8.20;3.92;;;13.80;99.90;;;;;;5045433;28;20060;-75
2023/10/06 05:54:42;;;;;;;11.18;4.55;;;13.90;99.90;;;;;;5045530;28;20392;-75
2023/10/06 05:57:09;;;;;;;13.68;4.25;;;13.90;99.90;;;;;;5052052;28;20041;-75
2023/10/06 05:59:36;;;;;;;11.27;4.13;;;13.90;99.90;;;;;;5048875;28;20041;-80
2023/10/06 06:02:04;;;;;;;13.52;4.85;;;14.00;99.90;;;;;;5048418;28;20048;-79
2023/10/06 06:04:30;;;;;;;16.55;5.25;;;14.00;99.90;;;;;;5055403;28;20102;-79
2023/10/06 06:06:57;;;;;;;11.07;5.22;;;14.00;99.90;;;;;;5048047;28;20692;-79
2023/10/06 06:09:24;;;;;;;11.95;4.80;;;14.00;99.90;;;;;;5032724;28;20032;-79
2023/10/06 06:11:50;;;;;;;11.70;4.60;;;14.00;99.90;;;;;;5047511;28;20044;-79
2023/10/06 06:14:17;;;;;;;9.15;4.18;;;14.00;99.90;;;;;;5035710;28;20061;-79
2023/10/06 06:16:44;;;;;;;11.30;4.68;;;14.00;99.90;;;;;;5030053;28;20041;-79
2023/10/06 06:19:11;;;;;;;7.13;3.53;;;14.10;99.90;;;;;;5048388;28;20049;-79
2023/10/06 06:21:40;;;;;;;7.47;3.97;;;14.10;99.90;;;;;;5049388;28;20103;-79
2023/10/06 06:24:06;;;;;;;9.55;3.97;;;14.10;99.90;;;;;;5049041;28;20032;-79
2023/10/06 06:26:38;;;;;;;12.02;4.15;;;14.20;99.90;;;;;;5019385;28;20043;-79
2023/10/06 06:29:11;;;;;;;8.75;4.60;;;14.20;99.90;;;;;;5048519;28;20033;-79
2023/10/06 06:31:37;;;;;;;11.68;4.55;;;14.20;99.90;;;;;;5047233;28;20545;-79
2023/10/06 06:34:06;;;;;;;14.48;5.32;;;14.20;99.90;;;;;;5030316;28;20044;-79
2023/10/06 06:36:32;;;;;;;11.82;4.80;;;14.20;99.90;;;;;;5043391;28;20045;-79
2023/10/06 06:38:58;;;;;;;11.85;4.43;;;14.30;99.90;;;;;;5046415;28;20114;-79
2023/10/06 06:41:27;;;;;;;11.55;4.70;;;14.30;99.90;;;;;;5057419;28;20118;-79
2023/10/06 06:43:59;;;;;;;11.70;4.50;;;14.40;99.90;;;;;;5036843;28;20041;-79
2023/10/06 06:46:31;;;;;;;11.65;4.30;;;14.40;99.90;;;;;;5047440;28;20403;-78
2023/10/06 06:48:57;;;;;;;7.55;5.20;;;14.40;99.90;;;;;;5046150;28;20044;-79
2023/10/06 06:51:30;;;;;;;13.82;5.00;;;14.20;99.90;;;;;;5035428;28;20400;-79
2023/10/06 06:53:56;;;;;;;10.38;4.63;;;14.10;99.90;;;;;;5029351;28;20127;-79
2023/10/06 06:56:28;;;;;;;9.95;4.25;;;13.90;99.90;;;;;;5046901;28;20053;-79
2023/10/06 06:58:56;;;;;;;8.80;4.63;;;13.90;99.90;;;;;;5032029;28;20569;-79
2023/10/06 07:01:21;;;;;;;10.43;4.90;;;13.90;99.90;;;;;;5042308;28;20049;-79
2023/10/06 07:03:47;;;;;;;13.43;5.07;;;13.90;99.90;;;;;;5025202;28;20043;-79
2023/10/06 07:06:16;;;;;;;9.77;5.13;;;13.90;99.90;;;;;;5029979;28;20052;-79
2023/10/06 07:08:43;;;;;;;11.50;4.95;;;14.00;99.90;;;;;;5028269;28;20034;-79
2023/10/06 07:11:10;;;;;;;10.73;5.20;;;14.00;99.90;;;;;;5027836;28;20041;-79
2023/10/06 07:13:37;;;;;;;13.07;5.20;;;14.00;99.90;;;;;;5037826;28;20033;-79
2023/10/06 07:16:05;;;;;;;16.83;5.38;;;14.10;99.90;;;;;;5043014;28;20033;-79
2023/10/06 07:18:35;;;;;;;11.75;5.53;;;14.10;99.90;;;;;;5032045;28;20087;-79
2023/10/06 07:21:07;;;;;;;11.40;4.93;;;14.20;99.90;;;;;;5043365;28;20223;-79
2023/10/06 07:23:34;;;;;;;13.70;5.63;;;14.30;99.90;;;;;;5043960;28;20044;-78
2023/10/06 07:26:00;;;;;;;9.07;4.68;;;14.30;99.90;;;;;;5029603;28;20037;-80
2023/10/06 07:28:27;;;;;;;11.65;5.22;;;14.40;99.90;;;;;;5029507;28;20045;-79
2023/10/06 07:30:52;;;;;;;9.10;4.50;;;14.40;99.90;;;;;;5035609;28;20044;-79
2023/10/06 07:33:19;;;;;;;10.85;4.28;;;14.50;99.90;;;;;;5043966;28;20047;-80
2023/10/06 07:35:47;;;;;;;13.88;5.03;;;14.60;99.90;;;;;;5056905;28;20446;-79
2023/10/06 07:38:13;;;;;;;12.88;5.82;;;14.50;99.90;;;;;;5034602;28;20622;-79
2023/10/06 07:40:40;;;;;;;9.75;5.53;;;14.50;99.90;;;;;;5028442;28;20033;-79
2023/10/06 07:43:07;;;;;;;10.98;5.75;;;14.40;99.90;;;;;;5044442;28;20526;-79
2023/10/06 07:45:34;;;;;;;12.77;5.80;;;14.30;99.90;;;;;;5045898;28;20037;-81
2023/10/06 07:47:59;;;;;;;15.50;5.60;;;14.20;99.90;;;;;;5030470;28;20495;-80
2023/10/06 07:50:34;;;;;;;15.10;5.88;;;14.10;99.90;;;;;;5028742;28;20075;-79
2023/10/06 07:53:02;;;;;;;13.10;5.70;;;14.10;99.90;;;;;;5022705;28;20053;-79
2023/10/06 07:55:28;;;;;;;10.45;5.80;;;14.10;99.90;;;;;;5030089;28;20118;-79
2023/10/06 07:57:54;;;;;;;13.00;5.95;;;14.10;99.90;;;;;;5029598;28;20484;-79
2023/10/06 08:00:27;;;;;;;14.57;5.50;;;14.20;99.90;;;;;;5028755;28;20080;-80
2023/10/06 08:02:54;;;;;;;15.05;5.80;;;14.20;99.90;;;;;;5028774;28;20036;-79
2023/10/06 08:05:20;;;;;;;13.25;6.10;;;14.30;99.90;;;;;;5056082;28;20045;-79
2023/10/06 08:07:45;;;;;;;12.55;5.63;;;14.30;99.90;;;;;;5053006;28;20041;-79
2023/10/06 08:10:15;;;;;;;10.38;5.90;;;14.30;99.90;;;;;;5064113;28;20114;-79
2023/10/06 08:12:49;;;;;;;15.68;6.00;;;14.30;99.90;;;;;;5045431;28;20041;-79
2023/10/06 08:15:21;;;;;;;13.40;5.72;;;14.30;99.90;;;;;;5039466;28;20672;-80
2023/10/06 08:17:53;;;;;;;13.13;5.78;;;14.30;99.90;;;;;;5039997;28;20098;-79
2023/10/06 08:20:20;;;;;;;11.05;6.10;;;14.30;99.90;;;;;;5042757;28;20077;-80
2023/10/06 08:22:49;;;;;;;13.15;6.22;;;14.20;99.90;;;;;;5019032;28;20090;-79
2023/10/06 08:25:18;;;;;;;12.02;7.07;;;14.20;99.90;;;;;;5040436;28;20048;-79
2023/10/06 08:27:45;;;;;;;13.00;6.15;;;14.30;99.90;;;;;;5058481;28;20128;-79
2023/10/06 08:30:16;;;;;;;12.15;6.50;;;14.40;99.90;;;;;;5032567;28;20044;-79
2023/10/06 08:32:48;;;;;;;13.07;6.63;;;14.30;99.90;;;;;;5038740;28;20036;-79
2023/10/06 08:35:14;;;;;;;16.38;6.82;;;14.40;99.90;;;;;;5029456;28;20482;-79
2023/10/06 08:37:47;;;;;;;10.50;6.13;;;14.40;99.90;;;;;;5043471;28;20404;-79
2023/10/06 08:40:19;;;;;;;13.85;6.88;;;14.40;99.90;;;;;;5040969;28;20745;-79
2023/10/06 08:42:51;;;;;;;11.88;6.47;;;14.40;99.90;;;;;;5025157;28;20037;-78
2023/10/06 08:45:20;;;;;;;13.93;5.82;;;14.50;99.90;;;;;;5028290;28;20045;-79
2023/10/06 08:47:52;;;;;;;16.15;6.25;;;14.60;99.90;;;;;;5044705;28;20033;-78
2023/10/06 08:50:22;;;;;;;16.35;6.20;;;14.70;99.90;;;;;;5040841;28;20044;-79
2023/10/06 08:52:52;;;;;;;10.77;6.22;;;14.70;99.90;;;;;;5053832;28;20057;-79
2023/10/06 08:55:23;;;;;;;13.48;5.50;;;14.90;99.90;;;;;;5029762;28;20103;-78
2023/10/06 08:57:51;;;;;;;13.48;5.20;;;14.90;99.90;;;;;;5025061;28;20048;-79
2023/10/06 09:00:24;;;;;;;13.00;5.43;;;15.00;99.90;;;;;;5038902;28;20049;-79
2023/10/06 09:02:52;;;;;;;11.57;5.68;;;15.20;99.90;;;;;;5037399;28;20081;-79
2023/10/06 09:05:18;;;;;;;12.77;5.07;;;15.30;99.90;;;;;;5030711;28;20052;-79
2023/10/06 09:08:00;;;;;;;9.55;4.80;;;15.30;99.90;;;;;;5044861;28;20052;-79
2023/10/06 09:10:30;;;;;;;11.00;4.95;;;15.20;99.90;;;;;;5040421;28;20045;-79
2023/10/06 09:13:00;;;;;;;10.60;4.88;;;15.20;99.90;;;;;;5047318;28;20064;-79
2023/10/06 09:15:27;;;;;;;7.85;4.25;;;15.30;99.90;;;;;;5035812;28;20514;-80
2023/10/06 09:17:54;;;;;;;8.68;4.65;;;15.40;99.90;;;;;;5044084;28;20507;-79
2023/10/06 09:20:37;;;;;;;8.75;4.47;;;15.60;99.90;;;;;;5032340;28;20040;-79
2023/10/06 09:23:03;;;;;;;12.30;5.00;;;15.80;99.90;;;;;;5024937;28;20380;-79
2023/10/06 09:25:45;;;;;;;13.30;4.63;;;16.00;99.90;;;;;;5044336;28;20076;-79
2023/10/06 09:28:13;;;;;;;13.48;4.50;;;16.20;99.90;;;;;;5047396;28;20037;-79
2023/10/06 09:30:50;;;;;;;10.18;4.28;;;16.30;99.90;;;;;;5037510;28;20044;-79
2023/10/06 09:33:23;;;;;;;11.35;4.28;;;16.50;99.90;;;;;;5044678;28;20049;-79
2023/10/06 09:36:08;;;;;;;15.05;4.70;;;16.60;99.90;;;;;;5032481;28;20041;-79
2023/10/06 09:38:36;;;;;;;11.32;4.78;;;16.80;99.90;;;;;;5032436;28;20106;-79
2023/10/06 09:41:03;;;;;;;8.52;4.13;;;17.00;99.90;;;;;;5049818;28;20052;-79
2023/10/06 09:43:38;;;;;;;15.02;4.70;;;17.00;99.90;;;;;;5046454;28;20511;-79
2023/10/06 09:46:15;;;;;;;12.53;5.47;;;17.10;87.00;;;;;;5044943;28;20065;-79
2023/10/06 09:48:45;;;;;;;9.23;4.30;;;17.10;99.90;;;;;;5033477;28;20423;-79
2023/10/06 09:51:12;;;;;;;12.02;3.42;;;17.10;40.20;;;;;;5043948;28;20526;-79
2023/10/06 09:53:40;;;;;;;11.25;5.05;;;17.10;1.00;;;;;;5031930;28;20642;-79
2023/10/06 09:56:11;;;;;;;11.68;4.72;;;17.00;1.10;;;;;;5048160;28;20044;-79
2023/10/06 09:58:54;;;;;;;8.60;3.97;;;17.10;1.00;;;;;;5043769;28;20499;-80
2023/10/06 10:01:24;;;;;;;10.82;4.28;;;16.90;1.00;;;;;;5046371;28;20033;-79
2023/10/06 10:03:57;;;;;;;9.60;4.57;;;16.90;1.00;;;;;;5041576;28;20043;-79
2023/10/06 10:06:23;;;;;;;9.65;4.32;;;16.90;29.90;;;;;;5048033;28;20683;-79
2023/10/06 10:08:51;;;;;;;9.35;3.97;;;17.00;21.10;;;;;;5036231;28;20041;-79
2023/10/06 10:11:28;;;;;;;7.78;3.85;;;16.90;29.30;;;;;;5030826;28;20045;-79
2023/10/06 10:14:18;;;;;;;6.40;3.85;;;16.90;22.70;;;;;;5032063;28;20140;-80
2023/10/06 10:17:21;;;;;;;8.85;4.03;;;16.80;1.00;;;;;;5036695;28;20053;-79
2023/10/06 10:19:48;;;;;;;5.95;3.53;;;17.10;1.00;;;;;;5046975;28;20053;-78
2023/10/06 10:22:16;;;;;;;10.80;3.97;;;17.30;43.80;;;;;;5029164;28;20037;-79
2023/10/06 10:24:43;;;;;;;7.90;3.70;;;17.40;1.00;;;;;;5046065;28;20563;-78
2023/10/06 10:27:14;;;;;;;12.57;4.28;;;17.50;25.10;;;;;;5032297;28;20037;-79
2023/10/06 10:29:44;;;;;;;9.05;3.65;;;17.70;17.90;;;;;;5049738;28;20503;-79
2023/10/06 10:32:17;;;;;;;8.70;3.70;;;18.10;33.00;;;;;;5031694;28;20675;-80
2023/10/06 10:35:09;;;;;;;10.48;3.95;;;18.30;2.80;;;;;;5034154;28;20046;-79
2023/10/06 10:37:58;;;;;;;8.50;4.05;;;18.40;1.00;;;;;;5041137;28;20406;-79
2023/10/06 10:40:25;;;;;;;8.75;3.58;;;18.40;99.90;;;;;;5028734;28;20504;-79
2023/10/06 10:43:00;;;;;;;6.38;3.40;;;18.40;1.00;;;;;;5033268;28;20037;-79
2023/10/06 10:45:46;;;;;;;7.95;3.35;;;18.50;1.00;;;;;;5042435;28;20130;-79
2023/10/06 10:48:13;;;;;;;6.80;3.28;;;18.70;99.90;;;;;;5025465;28;20092;-81
2023/10/06 10:50:57;;;;;;;5.25;2.75;;;18.70;1.00;;;;;;5038815;28;20060;-79
2023/10/06 10:53:26;;;;;;;8.30;3.20;;;18.80;1.00;;;;;;5022175;28;20117;-79
2023/10/06 10:55:52;;;;;;;6.03;2.72;;;19.00;1.00;;;;;;5046255;28;20045;-79
2023/10/06 10:58:53;;;;;;;6.97;2.50;;;19.00;99.90;;;;;;5032622;28;20045;-79
2023/10/06 11:01:24;;;;;;;5.68;2.78;;;18.90;99.90;;;;;;5044085;28;20079;-79
2023/10/06 11:04:13;;;;;;;10.73;3.28;;;19.00;99.90;;;;;;5027631;28;20033;-79
2023/10/06 11:06:40;;;;;;;8.27;2.92;;;19.10;1.00;;;;;;5039733;28;20180;-79
2023/10/06 11:09:29;;;;;;;6.07;2.80;;;19.30;99.90;;;;;;5035180;28;20041;-79
2023/10/06 11:12:17;;;;;;;7.97;2.85;;;19.40;1.00;;;;;;5027755;28;20041;-79
2023/10/06 11:14:43;;;;;;;8.38;2.67;;;19.30;1.00;;;;;;5035821;28;20044;-80
2023/10/06 11:17:11;;;;;;;9.10;2.85;;;19.20;99.90;;;;;;5052610;28;20115;-79
2023/10/06 11:19:38;;;;;;;12.85;3.72;;;19.30;99.90;;;;;;5040430;28;20099;-79
2023/10/06 11:22:11;;;;;;;5.80;2.58;;;19.20;75.30;;;;;;5029852;28;20128;-79
2023/10/06 11:24:39;;;;;;;5.43;2.67;;;19.10;1.00;;;;;;5029707;28;20111;-79
2023/10/06 11:27:14;;;;;;;8.25;3.05;;;19.00;99.90;;;;;;5029366;28;20175;-79
2023/10/06 11:29:40;;;;;;;5.70;2.72;;;18.90;99.90;;;;;;5030586;28;20090;-79
2023/10/06 11:32:07;;;;;;;9.93;2.70;;;18.80;99.90;;;;;;5044936;28;20033;-79
2023/10/06 11:34:34;;;;;;;7.57;2.75;;;18.80;99.90;;;;;;5025517;28;20394;-80
2023/10/06 11:37:01;;;;;;;7.30;2.63;;;18.90;99.90;;;;;;5038095;28;20503;-80
2023/10/06 11:39:30;;;;;;;6.93;2.30;;;19.00;99.90;;;;;;5028863;28;20076;-79
2023/10/06 11:42:23;;;;;;;5.47;2.47;;;19.00;99.90;;;;;;5021699;28;20037;-79
2023/10/06 11:44:52;;;;;;;6.93;3.00;;;19.10;1.00;;;;;;5045081;28;20095;-79
2023/10/06 11:47:21;;;;;;;7.70;2.72;;;19.10;99.90;;;;;;5057905;28;20044;-79
2023/10/06 11:50:33;;;;;;;8.85;2.60;;;19.30;99.90;;;;;;5029557;28;20087;-78
2023/10/06 11:52:59;;;;;;;7.70;2.30;;;19.40;1.00;;;;;;5042597;28;20450;-79
2023/10/06 11:55:28;;;;;;;9.88;3.22;;;19.40;38.00;;;;;;5028105;28;20043;-79
2023/10/06 11:57:54;;;;;;;8.13;3.33;;;19.20;4.30;;;;;;5038394;28;20041;-79
2023/10/06 12:00:40;;;;;;;10.40;2.92;;;19.10;37.20;;;;;;5038773;28;20419;-79
2023/10/06 12:03:10;;;;;;;8.05;3.28;;;19.30;1.00;;;;;;5031457;28;20549;-79
2023/10/06 12:05:41;;;;;;;7.38;3.28;;;19.30;17.10;;;;;;5023096;28;20070;-79
2023/10/06 12:08:12;;;;;;;8.15;2.92;;;19.40;99.90;;;;;;5026212;28;20056;-79
2023/10/06 12:10:51;;;;;;;7.30;2.70;;;19.60;96.70;;;;;;5056128;28;20506;-79
2023/10/06 12:13:18;;;;;;;9.38;2.75;;;19.60;1.00;;;;;;5044804;28;20167;-80
2023/10/06 12:15:44;;;;;;;8.00;2.50;;;19.70;1.00;;;;;;5038129;28;20458;-79
2023/10/06 12:18:11;;;;;;;9.32;3.40;;;19.90;99.90;;;;;;5038242;28;20045;-79
2023/10/06 12:20:37;;;;;;;6.90;2.63;;;20.00;1.00;;;;;;5018214;28;20095;-79
2023/10/06 12:23:02;;;;;;;9.43;3.28;;;20.20;99.90;;;;;;5031054;28;20440;-79
2023/10/06 12:25:29;;;;;;;5.72;2.45;;;20.30;99.90;;;;;;5030755;28;20056;-79
2023/10/06 12:27:56;;;;;;;8.85;2.38;;;20.50;99.90;;;;;;5035079;28;20399;-80
2023/10/06 12:30:24;;;;;;;8.57;3.13;;;20.70;99.90;;;;;;5044211;28;20048;-79
2023/10/06 12:32:50;;;;;;;5.90;2.38;;;21.00;99.90;;;;;;5047828;28;20412;-79
2023/10/06 12:35:18;;;;;;;8.63;2.50;;;21.30;99.90;;;;;;5046247;28;20056;-79
2023/10/06 12:37:46;;;;;;;7.53;2.47;;;21.20;99.90;;;;;;5028137;28;20132;-79
2023/10/06 12:40:14;;;;;;;7.28;2.90;;;21.20;99.90;;;;;;5027250;28;20430;-80
2023/10/06 12:42:42;;;;;;;5.35;2.78;;;21.00;99.90;;;;;;5030829;28;20033;-79
2023/10/06 12:45:12;;;;;;;12.25;2.97;;;21.00;99.90;;;;;;5047284;28;20412;-79
2023/10/06 12:47:41;;;;;;;10.50;2.67;;;21.60;99.90;;;;;;5029816;28;20038;-79
2023/10/06 12:50:08;;;;;;;6.07;2.30;;;22.20;99.90;;;;;;5045570;28;20045;-79
2023/10/06 12:52:37;;;;;;;5.30;2.33;;;22.20;99.90;;;;;;5046665;28;20064;-80
2023/10/06 12:55:10;;;;;;;5.85;2.40;;;22.40;99.90;;;;;;5035348;28;20547;-79
2023/10/06 12:57:42;;;;;;;5.78;2.40;;;22.50;99.90;;;;;;5017498;28;20488;-80
2023/10/06 13:00:09;;;;;;;7.60;2.55;;;22.20;99.90;;;;;;5027959;28;20036;-80
2023/10/06 13:02:35;;;;;;;6.57;2.30;;;21.90;99.90;;;;;;5046888;28;20040;-79
2023/10/06 13:05:09;;;;;;;4.85;2.35;;;21.40;99.90;;;;;;5034346;28;20033;-80
2023/10/06 13:07:36;;;;;;;5.75;2.28;;;21.00;99.90;;;;;;5032307;28;20033;-80